sensor_id;sensor_type;location;lat;lon;timestamp;pressure;altitude;pressure_sealevel;temperature;humidity
21100;BME280;10708;50.824;4.408;2023-04-25T00:01:06;100187.69;;;7.94;100.00
21100;BME280;10708;50.824;4.408;2023-04-25T00:06:10;100190.22;;;7.97;100.00
21100;BME280;10708;50.824;4.408;2023-04-25T00:11:13;100188.38;;;7.99;100.00
21100;BME280;10708;50.824;4.408;2023-04-25T00:16:15;100186.81;;;7.94;100.00
21100;BME280;10708;50.824;4.408;2023-04-25T00:21:20;100190.31;;;7.94;100.00
21100;BME280;10708;50.824;4.408;2023-04-25T00:26:25;100188.59;;;7.93;100.00
21100;BME280;10708;50.824;4.408;2023-04-25T00:31:27;100191.28;;;7.90;100.00
21100;BME280;10708;50.824;4.408;2023-04-25T00:36:32;100194.97;;;7.85;100.00
21100;BME280;10708;50.824;4.408;2023-04-25T00:41:34;100192.59;;;7.77;100.00
21100;BME280;10708;50.824;4.408;2023-04-25T00:46:38;100192.91;;;7.66;100.00
21100;BME280;10708;50.824;4.408;2023-04-25T00:51:43;100202.69;;;7.60;100.00
21100;BME280;10708;50.824;4.408;2023-04-25T00:56:46;100193.34;;;7.51;100.00
21100;BME280;10708;50.824;4.408;2023-04-25T01:01:48;100199.59;;;7.47;100.00
21100;BME280;10708;50.824;4.408;2023-04-25T01:06:52;100195.41;;;7.40;100.00
21100;BME280;10708;50.824;4.408;2023-04-25T01:11:56;100199.03;;;7.36;100.00
21100;BME280;10708;50.824;4.408;2023-04-25T01:16:59;100202.59;;;7.33;100.00
21100;BME280;10708;50.824;4.408;2023-04-25T01:22:03;100202.59;;;7.33;100.00
21100;BME280;10708;50.824;4.408;2023-04-25T01:27:06;100202.59;;;7.33;100.00
21100;BME280;10708;50.824;4.408;2023-04-25T01:32:09;100204.31;;;7.34;100.00
21100;BME280;10708;50.824;4.408;2023-04-25T01:37:13;100221.81;;;7.32;100.00
21100;BME280;10708;50.824;4.408;2023-04-25T01:42:16;100211.38;;;7.31;100.00
21100;BME280;10708;50.824;4.408;2023-04-25T01:47:18;100211.53;;;7.26;100.00
21100;BME280;10708;50.824;4.408;2023-04-25T01:52:22;100218.63;;;7.21;100.00
21100;BME280;10708;50.824;4.408;2023-04-25T01:57:24;100222.34;;;7.14;100.00
21100;BME280;10708;50.824;4.408;2023-04-25T02:02:27;100229.44;;;7.09;100.00
21100;BME280;10708;50.824;4.408;2023-04-25T02:07:31;100232.22;;;7.03;100.00
21100;BME280;10708;50.824;4.408;2023-04-25T02:12:35;100230.53;;;7.00;100.00
21100;BME280;10708;50.824;4.408;2023-04-25T02:17:37;100230.69;;;6.96;100.00
21100;BME280;10708;50.824;4.408;2023-04-25T02:22:41;100235.09;;;6.94;100.00
21100;BME280;10708;50.824;4.408;2023-04-25T02:27:44;100239.56;;;6.89;100.00
21100;BME280;10708;50.824;4.408;2023-04-25T02:32:46;100243.13;;;6.88;100.00
21100;BME280;10708;50.824;4.408;2023-04-25T02:37:50;100240.69;;;6.80;100.00
21100;BME280;10708;50.824;4.408;2023-04-25T02:42:53;100241.66;;;6.76;100.00
21100;BME280;10708;50.824;4.408;2023-04-25T02:47:55;100236.50;;;6.73;100.00
21100;BME280;10708;50.824;4.408;2023-04-25T02:52:59;100237.31;;;6.75;100.00
21100;BME280;10708;50.824;4.408;2023-04-25T02:58:01;100250.34;;;6.78;100.00
21100;BME280;10708;50.824;4.408;2023-04-25T03:03:05;100240.75;;;6.79;100.00
21100;BME280;10708;50.824;4.408;2023-04-25T03:08:09;100238.13;;;6.79;100.00
21100;BME280;10708;50.824;4.408;2023-04-25T03:13:11;100239.78;;;6.81;100.00
21100;BME280;10708;50.824;4.408;2023-04-25T03:18:14;100245.88;;;6.82;100.00
21100;BME280;10708;50.824;4.408;2023-04-25T03:23:18;100247.63;;;6.81;100.00
21100;BME280;10708;50.824;4.408;2023-04-25T03:28:22;100247.66;;;6.80;100.00
21100;BME280;10708;50.824;4.408;2023-04-25T03:33:24;100246.91;;;6.76;100.00
21100;BME280;10708;50.824;4.408;2023-04-25T03:38:28;100251.38;;;6.71;100.00
21100;BME280;10708;50.824;4.408;2023-04-25T03:43:30;100251.50;;;6.66;100.00
21100;BME280;10708;50.824;4.408;2023-04-25T03:48:32;100247.19;;;6.64;100.00
21100;BME280;10708;50.824;4.408;2023-04-25T03:53:37;100246.44;;;6.59;100.00
21100;BME280;10708;50.824;4.408;2023-04-25T03:58:39;100257.03;;;6.54;100.00
21100;BME280;10708;50.824;4.408;2023-04-25T04:03:41;100263.19;;;6.52;100.00
21100;BME280;10708;50.824;4.408;2023-04-25T04:08:45;100269.25;;;6.54;100.00
21100;BME280;10708;50.824;4.408;2023-04-25T04:13:47;100273.56;;;6.56;100.00
21100;BME280;10708;50.824;4.408;2023-04-25T04:18:50;100276.28;;;6.52;100.00
21100;BME280;10708;50.824;4.408;2023-04-25T04:23:54;100283.38;;;6.47;100.00
21100;BME280;10708;50.824;4.408;2023-04-25T04:28:58;100293.94;;;6.42;100.00
21100;BME280;10708;50.824;4.408;2023-04-25T04:34:01;100299.34;;;6.35;100.00
21100;BME280;10708;50.824;4.408;2023-04-25T04:39:05;100294.22;;;6.30;100.00
21100;BME280;10708;50.824;4.408;2023-04-25T04:44:10;100302.94;;;6.29;100.00
21100;BME280;10708;50.824;4.408;2023-04-25T04:49:13;100309.03;;;6.29;100.00
21100;BME280;10708;50.824;4.408;2023-04-25T04:54:17;100318.56;;;6.34;100.00
21100;BME280;10708;50.824;4.408;2023-04-25T04:59:19;100313.31;;;6.34;100.00
21100;BME280;10708;50.824;4.408;2023-04-25T05:04:22;100324.63;;;6.36;100.00
21100;BME280;10708;50.824;4.408;2023-04-25T05:09:26;100340.34;;;6.34;100.00
21100;BME280;10708;50.824;4.408;2023-04-25T05:14:29;100339.53;;;6.30;100.00
21100;BME280;10708;50.824;4.408;2023-04-25T05:19:32;100352.63;;;6.30;100.00
21100;BME280;10708;50.824;4.408;2023-04-25T05:24:36;100356.94;;;6.33;100.00
21100;BME280;10708;50.824;4.408;2023-04-25T05:29:38;100371.69;;;6.36;100.00
21100;BME280;10708;50.824;4.408;2023-04-25T05:34:41;100384.09;;;6.27;100.00
21100;BME280;10708;50.824;4.408;2023-04-25T05:39:47;100379.22;;;6.09;100.00
21100;BME280;10708;50.824;4.408;2023-04-25T05:44:49;100386.38;;;6.00;100.00
21100;BME280;10708;50.824;4.408;2023-04-25T05:49:52;100391.72;;;5.95;100.00
21100;BME280;10708;50.824;4.408;2023-04-25T05:54:56;100390.88;;;5.93;100.00
21100;BME280;10708;50.824;4.408;2023-04-25T05:59:58;100391.59;;;6.00;100.00
21100;BME280;10708;50.824;4.408;2023-04-25T06:05:01;100387.88;;;6.13;100.00
21100;BME280;10708;50.824;4.408;2023-04-25T06:10:07;100389.38;;;6.24;100.00
21100;BME280;10708;50.824;4.408;2023-04-25T06:15:10;100393.47;;;6.38;100.00
21100;BME280;10708;50.824;4.408;2023-04-25T06:20:12;100401.84;;;6.52;100.00
21100;BME280;10708;50.824;4.408;2023-04-25T06:25:16;100410.16;;;6.71;100.00
21100;BME280;10708;50.824;4.408;2023-04-25T06:30:19;100414.16;;;6.87;100.00
21100;BME280;10708;50.824;4.408;2023-04-25T06:35:24;100428.66;;;7.01;100.00
21100;BME280;10708;50.824;4.408;2023-04-25T06:40:29;100428.41;;;7.12;100.00
21100;BME280;10708;50.824;4.408;2023-04-25T06:45:31;100430.16;;;7.12;100.00
21100;BME280;10708;50.824;4.408;2023-04-25T06:50:34;100429.25;;;7.13;100.00
21100;BME280;10708;50.824;4.408;2023-04-25T06:55:38;100442.31;;;7.14;100.00
21100;BME280;10708;50.824;4.408;2023-04-25T07:00:41;100457.09;;;7.17;100.00
21100;BME280;10708;50.824;4.408;2023-04-25T07:05:45;100453.59;;;7.18;100.00
21100;BME280;10708;50.824;4.408;2023-04-25T07:10:50;100469.00;;;7.30;100.00
21100;BME280;10708;50.824;4.408;2023-04-25T07:15:54;100474.84;;;7.41;100.00
21100;BME280;10708;50.824;4.408;2023-04-25T07:20:58;100468.47;;;7.51;100.00
21100;BME280;10708;50.824;4.408;2023-04-25T07:26:03;100469.28;;;7.55;100.00
21100;BME280;10708;50.824;4.408;2023-04-25T07:31:06;100466.50;;;7.61;100.00
21100;BME280;10708;50.824;4.408;2023-04-25T07:36:09;100471.38;;;7.76;100.00
21100;BME280;10708;50.824;4.408;2023-04-25T07:41:13;100474.69;;;7.83;100.00
21100;BME280;10708;50.824;4.408;2023-04-25T07:46:15;100483.75;;;8.03;100.00
21100;BME280;10708;50.824;4.408;2023-04-25T07:51:18;100497.53;;;8.10;100.00
21100;BME280;10708;50.824;4.408;2023-04-25T07:56:27;100491.94;;;8.24;100.00
21100;BME280;10708;50.824;4.408;2023-04-25T08:01:30;100501.13;;;8.40;100.00
21100;BME280;10708;50.824;4.408;2023-04-25T08:06:32;100502.56;;;8.51;100.00
21100;BME280;10708;50.824;4.408;2023-04-25T08:11:36;100511.81;;;8.65;100.00
21100;BME280;10708;50.824;4.408;2023-04-25T08:16:39;100521.75;;;8.84;100.00
21100;BME280;10708;50.824;4.408;2023-04-25T08:21:41;100537.91;;;9.00;100.00
21100;BME280;10708;50.824;4.408;2023-04-25T08:26:46;100529.56;;;9.15;100.00
21100;BME280;10708;50.824;4.408;2023-04-25T08:31:49;100536.22;;;9.27;100.00
21100;BME280;10708;50.824;4.408;2023-04-25T08:36:52;100544.41;;;9.18;100.00
21100;BME280;10708;50.824;4.408;2023-04-25T08:41:56;100554.28;;;8.79;100.00
21100;BME280;10708;50.824;4.408;2023-04-25T08:47:03;100555.44;;;8.69;100.00
21100;BME280;10708;50.824;4.408;2023-04-25T08:52:13;100557.97;;;9.03;100.00
21100;BME280;10708;50.824;4.408;2023-04-25T08:57:25;100555.28;;;10.89;100.00
21100;BME280;10708;50.824;4.408;2023-04-25T09:02:33;100555.50;;;12.37;100.00
21100;BME280;10708;50.824;4.408;2023-04-25T09:07:37;100568.59;;;12.79;100.00
21100;BME280;10708;50.824;4.408;2023-04-25T09:12:41;100572.56;;;11.64;100.00
21100;BME280;10708;50.824;4.408;2023-04-25T09:17:44;100589.47;;;10.90;100.00
21100;BME280;10708;50.824;4.408;2023-04-25T09:22:46;100586.00;;;10.65;100.00
21100;BME280;10708;50.824;4.408;2023-04-25T09:27:51;100600.06;;;10.13;100.00
21100;BME280;10708;50.824;4.408;2023-04-25T09:32:56;100595.28;;;9.71;100.00
21100;BME280;10708;50.824;4.408;2023-04-25T09:37:59;100599.28;;;9.56;100.00
21100;BME280;10708;50.824;4.408;2023-04-25T09:43:09;100602.06;;;9.50;100.00
21100;BME280;10708;50.824;4.408;2023-04-25T09:48:17;100609.28;;;9.72;100.00
21100;BME280;10708;50.824;4.408;2023-04-25T09:53:27;100624.03;;;9.77;100.00
21100;BME280;10708;50.824;4.408;2023-04-25T09:58:34;100635.19;;;9.85;100.00
21100;BME280;10708;50.824;4.408;2023-04-25T10:03:43;100625.63;;;10.37;100.00
21100;BME280;10708;50.824;4.408;2023-04-25T10:08:51;100613.38;;;11.99;100.00
21100;BME280;10708;50.824;4.408;2023-04-25T10:13:59;100612.41;;;12.44;100.00
21100;BME280;10708;50.824;4.408;2023-04-25T10:19:02;100608.78;;;11.82;100.00
21100;BME280;10708;50.824;4.408;2023-04-25T10:24:05;100616.50;;;12.71;100.00
21100;BME280;10708;50.824;4.408;2023-04-25T10:29:09;100626.06;;;13.71;100.00
21100;BME280;10708;50.824;4.408;2023-04-25T10:34:12;100620.19;;;13.83;100.00
21100;BME280;10708;50.824;4.408;2023-04-25T10:39:22;100606.31;;;14.14;100.00
21100;BME280;10708;50.824;4.408;2023-04-25T10:44:28;100614.13;;;14.86;100.00
21100;BME280;10708;50.824;4.408;2023-04-25T10:49:32;100622.50;;;13.53;100.00
21100;BME280;10708;50.824;4.408;2023-04-25T10:54:40;100624.41;;;12.51;100.00
21100;BME280;10708;50.824;4.408;2023-04-25T10:59:44;100629.47;;;11.93;100.00
21100;BME280;10708;50.824;4.408;2023-04-25T11:04:47;100638.41;;;11.44;100.00
21100;BME280;10708;50.824;4.408;2023-04-25T11:09:50;100648.53;;;11.08;100.00
21100;BME280;10708;50.824;4.408;2023-04-25T11:15:00;100653.53;;;10.92;100.00
21100;BME280;10708;50.824;4.408;2023-04-25T11:20:03;100652.75;;;10.11;100.00
21100;BME280;10708;50.824;4.408;2023-04-25T11:25:13;100661.72;;;10.06;100.00
21100;BME280;10708;50.824;4.408;2023-04-25T11:30:18;100660.81;;;10.07;100.00
21100;BME280;10708;50.824;4.408;2023-04-25T11:35:21;100666.25;;;10.28;100.00
21100;BME280;10708;50.824;4.408;2023-04-25T11:40:26;100662.91;;;10.50;100.00
21100;BME280;10708;50.824;4.408;2023-04-25T11:45:30;100669.63;;;10.58;100.00
21100;BME280;10708;50.824;4.408;2023-04-25T11:50:32;100674.19;;;10.78;100.00
21100;BME280;10708;50.824;4.408;2023-04-25T11:55:36;100682.25;;;10.75;100.00
21100;BME280;10708;50.824;4.408;2023-04-25T12:00:42;100688.19;;;11.05;100.00
21100;BME280;10708;50.824;4.408;2023-04-25T12:05:45;100679.38;;;10.81;100.00
21100;BME280;10708;50.824;4.408;2023-04-25T12:10:48;100696.22;;;11.02;100.00
21100;BME280;10708;50.824;4.408;2023-04-25T12:15:54;100688.63;;;11.41;100.00
21100;BME280;10708;50.824;4.408;2023-04-25T12:20:58;100690.53;;;11.84;100.00
21100;BME280;10708;50.824;4.408;2023-04-25T12:26:01;100687.47;;;11.71;100.00
21100;BME280;10708;50.824;4.408;2023-04-25T12:31:06;100683.88;;;11.51;100.00
21100;BME280;10708;50.824;4.408;2023-04-25T12:36:09;100705.75;;;11.29;100.00
21100;BME280;10708;50.824;4.408;2023-04-25T12:41:13;100704.88;;;11.05;100.00
21100;BME280;10708;50.824;4.408;2023-04-25T12:46:17;100703.63;;;10.91;100.00
21100;BME280;10708;50.824;4.408;2023-04-25T12:51:19;100706.69;;;11.03;100.00
21100;BME280;10708;50.824;4.408;2023-04-25T12:56:21;100696.44;;;10.96;100.00
21100;BME280;10708;50.824;4.408;2023-04-25T13:01:25;100696.97;;;11.29;100.00
21100;BME280;10708;50.824;4.408;2023-04-25T13:06:28;100705.56;;;11.10;100.00
21100;BME280;10708;50.824;4.408;2023-04-25T13:11:31;100697.00;;;10.79;100.00
21100;BME280;10708;50.824;4.408;2023-04-25T13:16:35;100701.84;;;10.66;100.00
21100;BME280;10708;50.824;4.408;2023-04-25T13:21:38;100705.75;;;10.55;100.00
21100;BME280;10708;50.824;4.408;2023-04-25T13:26:40;100700.19;;;10.38;100.00
21100;BME280;10708;50.824;4.408;2023-04-25T13:31:44;100699.56;;;10.29;100.00
21100;BME280;10708;50.824;4.408;2023-04-25T13:36:47;100696.53;;;10.42;100.00
21100;BME280;10708;50.824;4.408;2023-04-25T13:41:49;100690.09;;;10.50;100.00
21100;BME280;10708;50.824;4.408;2023-04-25T13:46:53;100679.59;;;10.75;100.00
21100;BME280;10708;50.824;4.408;2023-04-25T13:51:56;100691.28;;;10.93;100.00
21100;BME280;10708;50.824;4.408;2023-04-25T13:56:58;100692.81;;;10.98;100.00
21100;BME280;10708;50.824;4.408;2023-04-25T14:02:03;100699.06;;;10.96;100.00
21100;BME280;10708;50.824;4.408;2023-04-25T14:07:06;100705.13;;;10.73;100.00
21100;BME280;10708;50.824;4.408;2023-04-25T14:12:08;100704.25;;;10.48;100.00
21100;BME280;10708;50.824;4.408;2023-04-25T14:17:13;100721.44;;;10.31;100.00
21100;BME280;10708;50.824;4.408;2023-04-25T14:22:16;100724.06;;;10.31;100.00
21100;BME280;10708;50.824;4.408;2023-04-25T14:27:18;100722.59;;;10.23;100.00
21100;BME280;10708;50.824;4.408;2023-04-25T14:32:22;100718.41;;;10.44;100.00
21100;BME280;10708;50.824;4.408;2023-04-25T14:37:25;100726.59;;;10.61;100.00
21100;BME280;10708;50.824;4.408;2023-04-25T14:42:27;100724.75;;;10.64;100.00
21100;BME280;10708;50.824;4.408;2023-04-25T14:47:31;100730.19;;;10.58;100.00
21100;BME280;10708;50.824;4.408;2023-04-25T14:52:34;100726.47;;;10.65;100.00
21100;BME280;10708;50.824;4.408;2023-04-25T14:57:36;100727.97;;;10.72;100.00
21100;BME280;10708;50.824;4.408;2023-04-25T15:02:41;100727.63;;;10.83;100.00
21100;BME280;10708;50.824;4.408;2023-04-25T15:07:44;100728.44;;;10.85;100.00
21100;BME280;10708;50.824;4.408;2023-04-25T15:12:49;100732.34;;;10.98;100.00
21100;BME280;10708;50.824;4.408;2023-04-25T15:17:53;100745.66;;;10.95;100.00
21100;BME280;10708;50.824;4.408;2023-04-25T15:22:57;100745.84;;;10.89;100.00
21100;BME280;10708;50.824;4.408;2023-04-25T15:27:59;100747.81;;;10.83;100.00
21100;BME280;10708;50.824;4.408;2023-04-25T15:33:03;100764.28;;;10.89;100.00
21100;BME280;10708;50.824;4.408;2023-04-25T15:38:07;100754.09;;;10.79;100.00
21100;BME280;10708;50.824;4.408;2023-04-25T15:43:12;100761.88;;;10.83;100.00
21100;BME280;10708;50.824;4.408;2023-04-25T15:48:17;100767.09;;;10.85;100.00
21100;BME280;10708;50.824;4.408;2023-04-25T15:53:20;100771.69;;;10.78;100.00
21100;BME280;10708;50.824;4.408;2023-04-25T15:58:22;100768.41;;;10.71;100.00
21100;BME280;10708;50.824;4.408;2023-04-25T16:03:26;100770.97;;;10.73;100.00
21100;BME280;10708;50.824;4.408;2023-04-25T16:08:29;100771.53;;;10.83;100.00
21100;BME280;10708;50.824;4.408;2023-04-25T16:13:34;100774.38;;;10.77;100.00
21100;BME280;10708;50.824;4.408;2023-04-25T16:18:38;100777.41;;;10.64;100.00
21100;BME280;10708;50.824;4.408;2023-04-25T16:23:41;100781.25;;;10.54;100.00
21100;BME280;10708;50.824;4.408;2023-04-25T16:28:43;100792.84;;;10.49;100.00
21100;BME280;10708;50.824;4.408;2023-04-25T16:33:47;100784.78;;;10.27;100.00
21100;BME280;10708;50.824;4.408;2023-04-25T16:38:50;100793.66;;;10.23;100.00
21100;BME280;10708;50.824;4.408;2023-04-25T16:43:52;100792.88;;;10.19;100.00
21100;BME280;10708;50.824;4.408;2023-04-25T16:48:57;100787.44;;;10.53;100.00
21100;BME280;10708;50.824;4.408;2023-04-25T16:54:00;100786.19;;;10.65;100.00
21100;BME280;10708;50.824;4.408;2023-04-25T16:59:03;100780.78;;;10.42;100.00
21100;BME280;10708;50.824;4.408;2023-04-25T17:04:07;100786.63;;;10.23;100.00
21100;BME280;10708;50.824;4.408;2023-04-25T17:09:10;100787.75;;;10.15;100.00
21100;BME280;10708;50.824;4.408;2023-04-25T17:14:12;100786.06;;;10.12;100.00
21100;BME280;10708;50.824;4.408;2023-04-25T17:19:16;100783.94;;;9.95;100.00
21100;BME280;10708;50.824;4.408;2023-04-25T17:24:19;100798.38;;;9.81;100.00
21100;BME280;10708;50.824;4.408;2023-04-25T17:29:22;100801.44;;;9.67;100.00
21100;BME280;10708;50.824;4.408;2023-04-25T17:34:26;100808.31;;;9.71;100.00
21100;BME280;10708;50.824;4.408;2023-04-25T17:39:29;100816.34;;;9.67;100.00
21100;BME280;10708;50.824;4.408;2023-04-25T17:44:33;100823.63;;;9.57;100.00
21100;BME280;10708;50.824;4.408;2023-04-25T17:49:37;100822.47;;;9.35;100.00
21100;BME280;10708;50.824;4.408;2023-04-25T17:54:39;100829.75;;;9.25;100.00
21100;BME280;10708;50.824;4.408;2023-04-25T17:59:42;100828.97;;;9.20;100.00
21100;BME280;10708;50.824;4.408;2023-04-25T18:04:46;100832.00;;;9.05;100.00
21100;BME280;10708;50.824;4.408;2023-04-25T18:09:48;100834.88;;;8.96;100.00
21100;BME280;10708;50.824;4.408;2023-04-25T18:14:50;100847.34;;;8.87;100.00
21100;BME280;10708;50.824;4.408;2023-04-25T18:19:54;100844.91;;;8.78;100.00
21100;BME280;10708;50.824;4.408;2023-04-25T18:24:56;100866.13;;;8.69;100.00
21100;BME280;10708;50.824;4.408;2023-04-25T18:30:01;100863.88;;;8.54;100.00
21100;BME280;10708;50.824;4.408;2023-04-25T18:35:05;100870.28;;;8.41;100.00
21100;BME280;10708;50.824;4.408;2023-04-25T18:40:10;100875.72;;;8.32;100.00
21100;BME280;10708;50.824;4.408;2023-04-25T18:45:14;100882.94;;;8.21;100.00
21100;BME280;10708;50.824;4.408;2023-04-25T18:50:18;100881.47;;;8.07;100.00
21100;BME280;10708;50.824;4.408;2023-04-25T18:55:23;100881.78;;;7.92;100.00
21100;BME280;10708;50.824;4.408;2023-04-25T19:00:26;100884.72;;;7.77;100.00
21100;BME280;10708;50.824;4.408;2023-04-25T19:05:32;100896.31;;;7.62;100.00
21100;BME280;10708;50.824;4.408;2023-04-25T19:10:35;100897.44;;;7.49;100.00
21100;BME280;10708;50.824;4.408;2023-04-25T19:15:38;100905.47;;;7.40;100.00
21100;BME280;10708;50.824;4.408;2023-04-25T19:20:42;100913.47;;;7.31;100.00
21100;BME280;10708;50.824;4.408;2023-04-25T19:25:45;100904.94;;;7.20;100.00
21100;BME280;10708;50.824;4.408;2023-04-25T19:30:47;100916.41;;;7.13;100.00
21100;BME280;10708;50.824;4.408;2023-04-25T19:35:52;100920.88;;;7.08;100.00
21100;BME280;10708;50.824;4.408;2023-04-25T19:40:58;100921.81;;;7.02;100.00
21100;BME280;10708;50.824;4.408;2023-04-25T19:46:03;100922.81;;;6.95;100.00
21100;BME280;10708;50.824;4.408;2023-04-25T19:51:07;100925.53;;;6.87;100.00
21100;BME280;10708;50.824;4.408;2023-04-25T19:56:09;100929.97;;;6.82;100.00
21100;BME280;10708;50.824;4.408;2023-04-25T20:01:13;100931.78;;;6.79;100.00
21100;BME280;10708;50.824;4.408;2023-04-25T20:06:18;100938.81;;;6.74;100.00
21100;BME280;10708;50.824;4.408;2023-04-25T20:11:21;100944.09;;;6.69;100.00
21100;BME280;10708;50.824;4.408;2023-04-25T20:16:24;100946.81;;;6.64;100.00
21100;BME280;10708;50.824;4.408;2023-04-25T20:21:29;100950.34;;;6.60;100.00
21100;BME280;10708;50.824;4.408;2023-04-25T20:26:33;100947.81;;;6.54;100.00
21100;BME280;10708;50.824;4.408;2023-04-25T20:31:36;100949.59;;;6.49;100.00
21100;BME280;10708;50.824;4.408;2023-04-25T20:36:39;100948.81;;;6.46;100.00
21100;BME280;10708;50.824;4.408;2023-04-25T20:46:55;100956.84;;;6.29;100.00
21100;BME280;10708;50.824;4.408;2023-04-25T20:52:00;100959.50;;;6.27;100.00
21100;BME280;10708;50.824;4.408;2023-04-25T20:57:02;100958.66;;;6.22;100.00
21100;BME280;10708;50.824;4.408;2023-04-25T21:02:05;100960.50;;;6.16;100.00
21100;BME280;10708;50.824;4.408;2023-04-25T21:07:09;100960.53;;;6.11;100.00
21100;BME280;10708;50.824;4.408;2023-04-25T21:12:13;100961.50;;;6.06;100.00
21100;BME280;10708;50.824;4.408;2023-04-25T21:17:15;100952.78;;;6.02;100.00
21100;BME280;10708;50.824;4.408;2023-04-25T21:22:19;100962.44;;;5.99;100.00
21100;BME280;10708;50.824;4.408;2023-04-25T21:27:22;100969.44;;;5.97;100.00
21100;BME280;10708;50.824;4.408;2023-04-25T21:32:25;100968.56;;;5.95;100.00
21100;BME280;10708;50.824;4.408;2023-04-25T21:37:29;100968.59;;;5.93;100.00
21100;BME280;10708;50.824;4.408;2023-04-25T21:42:32;100972.06;;;5.92;100.00
21100;BME280;10708;50.824;4.408;2023-04-25T21:47:37;100981.72;;;5.88;100.00
21100;BME280;10708;50.824;4.408;2023-04-25T21:52:42;100984.31;;;5.84;100.00
21100;BME280;10708;50.824;4.408;2023-04-25T21:57:45;100985.28;;;5.78;100.00
21100;BME280;10708;50.824;4.408;2023-04-25T22:02:48;100984.44;;;5.73;100.00
21100;BME280;10708;50.824;4.408;2023-04-25T22:07:53;100978.41;;;5.68;100.00
21100;BME280;10708;50.824;4.408;2023-04-25T22:12:57;100982.78;;;5.63;100.00
21100;BME280;10708;50.824;4.408;2023-04-25T22:17:59;100984.59;;;5.58;100.00
21100;BME280;10708;50.824;4.408;2023-04-25T22:23:05;100985.50;;;5.51;100.00
21100;BME280;10708;50.824;4.408;2023-04-25T22:28:08;100990.75;;;5.48;100.00
21100;BME280;10708;50.824;4.408;2023-04-25T22:33:12;100983.84;;;5.39;100.00
21100;BME280;10708;50.824;4.408;2023-04-25T22:38:17;100985.63;;;5.34;100.00
21100;BME280;10708;50.824;4.408;2023-04-25T22:43:20;100996.16;;;5.28;100.00
21100;BME280;10708;50.824;4.408;2023-04-25T22:48:23;101001.41;;;5.20;100.00
21100;BME280;10708;50.824;4.408;2023-04-25T22:53:27;101011.03;;;5.15;100.00
21100;BME280;10708;50.824;4.408;2023-04-25T22:58:32;101010.22;;;5.04;100.00
21100;BME280;10708;50.824;4.408;2023-04-25T23:03:38;101005.91;;;4.96;100.00
21100;BME280;10708;50.824;4.408;2023-04-25T23:08:44;101002.47;;;4.89;100.00
21100;BME280;10708;50.824;4.408;2023-04-25T23:13:48;101000.75;;;4.83;100.00
21100;BME280;10708;50.824;4.408;2023-04-25T23:18:57;101004.28;;;4.76;100.00
21100;BME280;10708;50.824;4.408;2023-04-25T23:24:04;101005.16;;;4.69;100.00
21100;BME280;10708;50.824;4.408;2023-04-25T23:29:08;101018.25;;;4.68;100.00
21100;BME280;10708;50.824;4.408;2023-04-25T23:34:13;101013.91;;;4.61;100.00
21100;BME280;10708;50.824;4.408;2023-04-25T23:39:18;101007.88;;;4.54;100.00
21100;BME280;10708;50.824;4.408;2023-04-25T23:44:22;101012.25;;;4.46;100.00
21100;BME280;10708;50.824;4.408;2023-04-25T23:49:26;101017.47;;;4.40;100.00
21100;BME280;10708;50.824;4.408;2023-04-25T23:54:31;101009.69;;;4.31;100.00
21100;BME280;10708;50.824;4.408;2023-04-25T23:59:35;101005.38;;;4.24;100.00
